createdAt,value
2023-05-08T00:02:06.301Z,7.57
2023-05-08T00:06:58.871Z,6.53
2023-05-08T00:09:25.132Z,9.33
2023-05-08T00:11:51.478Z,6.00
2023-05-08T00:14:17.557Z,6.40
2023-05-08T00:16:44.098Z,7.27
2023-05-08T00:19:10.252Z,7.67
2023-05-08T00:21:36.648Z,8.17
2023-05-08T00:24:02.852Z,6.23
2023-05-08T00:26:29.268Z,7.00
2023-05-08T00:28:55.792Z,7.30
2023-05-08T00:31:23.252Z,6.47
2023-05-08T00:33:49.531Z,5.50
2023-05-08T00:36:16.247Z,7.90
2023-05-08T00:38:42.342Z,9.20
2023-05-08T00:41:08.893Z,7.93
2023-05-08T00:43:36.784Z,7.80
2023-05-08T00:46:03.382Z,8.47
2023-05-08T00:48:33.444Z,10.03
2023-05-08T00:51:01.553Z,7.93
2023-05-08T00:53:30.261Z,8.40
2023-05-08T00:55:57.763Z,10.23
2023-05-08T00:58:26.387Z,10.57
2023-05-08T01:00:55.348Z,7.53
2023-05-08T01:03:23.115Z,7.67
2023-05-08T01:05:49.852Z,8.10
2023-05-08T01:08:16.007Z,6.80
2023-05-08T01:10:51.120Z,8.47
2023-05-08T01:13:35.998Z,7.70
2023-05-08T01:16:16.171Z,8.00
2023-05-08T01:18:50.302Z,6.90
2023-05-08T01:21:28.705Z,10.43
2023-05-08T01:24:30.806Z,9.10
2023-05-08T01:27:13.810Z,8.43
2023-05-08T01:29:57.391Z,7.93
2023-05-08T01:32:35.582Z,6.73
2023-05-08T01:35:40.977Z,9.03
2023-05-08T01:38:40.084Z,10.97
2023-05-08T01:41:13.770Z,6.57
2023-05-08T01:43:58.349Z,10.03
2023-05-08T01:46:27.168Z,7.57
2023-05-08T01:49:03.377Z,10.37
2023-05-08T01:51:38.493Z,8.83
2023-05-08T01:54:10.219Z,11.67
2023-05-08T01:56:38.340Z,8.33
2023-05-08T01:59:07.027Z,9.50
2023-05-08T02:01:34.319Z,9.53
2023-05-08T02:04:03.007Z,8.97
2023-05-08T02:06:31.743Z,10.77
2023-05-08T02:09:00.199Z,10.50
2023-05-08T02:11:28.311Z,8.97
2023-05-08T02:13:58.217Z,11.80
2023-05-08T02:16:25.912Z,9.53
2023-05-08T02:18:55.612Z,9.37
2023-05-08T02:21:22.947Z,10.00
2023-05-08T02:23:52.040Z,10.10
2023-05-08T02:26:20.980Z,10.07
2023-05-08T02:28:49.540Z,8.57
2023-05-08T02:31:17.558Z,8.50
2023-05-08T02:33:44.932Z,10.23
2023-05-08T02:36:14.885Z,11.17
2023-05-08T02:38:45.571Z,10.70
2023-05-08T02:41:14.712Z,11.70
2023-05-08T02:43:41.808Z,9.40
2023-05-08T02:46:19.019Z,11.27
2023-05-08T02:49:07.288Z,11.03
2023-05-08T02:51:57.396Z,8.83
2023-05-08T02:54:33.307Z,7.97
2023-05-08T02:57:05.773Z,10.23
2023-05-08T02:59:41.736Z,12.33
2023-05-08T03:02:38.636Z,8.37
2023-05-08T03:05:29.853Z,9.97
2023-05-08T03:08:01.083Z,9.67
2023-05-08T03:10:35.816Z,9.93
2023-05-08T03:13:06.870Z,11.73
2023-05-08T03:15:43.894Z,11.47
2023-05-08T03:18:14.187Z,9.67
2023-05-08T03:20:45.582Z,8.43
2023-05-08T03:23:13.995Z,9.93
2023-05-08T03:25:43.894Z,11.83
2023-05-08T03:28:13.243Z,16.67
2023-05-08T03:30:40.931Z,10.47
2023-05-08T03:33:11.540Z,12.47
2023-05-08T03:35:39.183Z,12.43
2023-05-08T03:38:07.624Z,11.10
2023-05-08T03:40:38.107Z,13.10
2023-05-08T03:43:08.424Z,16.17
2023-05-08T03:45:36.872Z,12.77
2023-05-08T03:48:05.000Z,13.30
2023-05-08T03:50:35.544Z,13.87
2023-05-08T03:53:02.575Z,10.53
2023-05-08T03:55:32.507Z,11.93
2023-05-08T03:58:14.365Z,10.93
2023-05-08T04:01:01.216Z,10.90
2023-05-08T04:03:50.835Z,10.20
2023-05-08T04:06:30.625Z,10.90
2023-05-08T04:09:24.764Z,9.73
2023-05-08T04:12:10.112Z,14.03
2023-05-08T04:14:43.427Z,13.97
2023-05-08T04:17:13.702Z,14.83
2023-05-08T04:19:45.705Z,11.37
2023-05-08T04:22:14.608Z,12.33
2023-05-08T04:24:43.720Z,13.57
2023-05-08T04:27:11.872Z,11.17
2023-05-08T04:29:38.769Z,11.87
2023-05-08T04:32:05.926Z,12.57
2023-05-08T04:34:34.587Z,11.80
2023-05-08T04:37:01.267Z,16.60
2023-05-08T04:39:27.833Z,11.40
2023-05-08T04:41:55.070Z,12.60
2023-05-08T04:44:21.857Z,13.50
2023-05-08T04:46:49.443Z,11.60
2023-05-08T04:49:15.837Z,12.37
2023-05-08T04:51:42.266Z,14.37
2023-05-08T04:54:08.482Z,14.03
2023-05-08T04:56:35.491Z,11.63
2023-05-08T04:59:02.036Z,13.70
2023-05-08T05:01:29.051Z,13.93
2023-05-08T05:03:55.322Z,13.43
2023-05-08T05:06:21.874Z,10.23
2023-05-08T05:08:48.013Z,14.47
2023-05-08T05:11:15.387Z,15.23
2023-05-08T05:13:41.838Z,11.43
2023-05-08T05:16:08.556Z,11.07
2023-05-08T05:18:35.025Z,11.40
2023-05-08T05:21:02.936Z,11.83
2023-05-08T05:23:29.266Z,10.50
2023-05-08T05:25:56.034Z,13.53
2023-05-08T05:28:22.530Z,12.27
2023-05-08T05:30:50.142Z,10.83
2023-05-08T05:33:16.766Z,12.67
2023-05-08T05:35:43.904Z,8.43
2023-05-08T05:38:10.955Z,14.27
2023-05-08T05:40:37.537Z,23.33
2023-05-08T05:43:03.863Z,9.47
2023-05-08T05:45:33.300Z,10.80
2023-05-08T05:48:00.481Z,8.77
2023-05-08T05:50:27.769Z,7.77
2023-05-08T05:52:55.631Z,6.40
2023-05-08T05:55:22.106Z,8.10
2023-05-08T05:57:48.305Z,9.67
2023-05-08T06:00:15.924Z,10.73
2023-05-08T06:02:47.369Z,12.33
2023-05-08T06:05:18.271Z,6.10
2023-05-08T06:07:45.597Z,6.83
2023-05-08T06:10:12.555Z,9.97
2023-05-08T06:12:38.718Z,5.53
2023-05-08T06:15:06.026Z,5.20
2023-05-08T06:17:32.915Z,6.73
2023-05-08T06:19:59.884Z,4.53
2023-05-08T06:22:26.074Z,5.83
2023-05-08T06:24:52.845Z,7.77
2023-05-08T06:27:20.290Z,7.13
2023-05-08T06:29:49.980Z,3.63
2023-05-08T06:32:16.439Z,5.80
2023-05-08T06:34:42.846Z,5.90
2023-05-08T06:37:09.120Z,4.18
2023-05-08T06:39:35.624Z,5.82
2023-05-08T06:42:01.931Z,4.07
2023-05-08T06:44:30.712Z,7.45
2023-05-08T06:46:56.887Z,4.65
2023-05-08T06:49:23.325Z,3.38
2023-05-08T06:51:49.478Z,3.50
2023-05-08T06:54:16.550Z,3.55
2023-05-08T06:56:42.718Z,3.60
2023-05-08T06:59:09.488Z,5.85
2023-05-08T07:01:36.743Z,3.75
2023-05-08T07:04:04.263Z,5.35
2023-05-08T07:06:30.524Z,4.00
2023-05-08T07:08:57.248Z,5.95
2023-05-08T07:11:23.419Z,2.75
2023-05-08T07:13:49.965Z,3.58
2023-05-08T07:16:16.608Z,4.38
2023-05-08T07:18:43.408Z,3.10
2023-05-08T07:21:09.953Z,3.85
2023-05-08T07:23:36.444Z,2.60
2023-05-08T07:26:02.905Z,3.40
2023-05-08T07:28:29.284Z,3.60
2023-05-08T07:30:56.534Z,4.32
2023-05-08T07:33:22.940Z,5.00
2023-05-08T07:35:49.225Z,2.47
2023-05-08T07:38:15.603Z,2.90
2023-05-08T07:40:41.649Z,2.97
2023-05-08T07:43:08.225Z,5.13
2023-05-08T07:45:35.253Z,3.72
2023-05-08T07:48:01.893Z,3.35
2023-05-08T07:50:27.989Z,3.30
2023-05-08T07:52:54.333Z,5.18
2023-05-08T07:55:20.802Z,5.63
2023-05-08T07:57:47.274Z,4.70
2023-05-08T08:00:14.928Z,5.55
2023-05-08T08:02:42.452Z,3.28
2023-05-08T08:05:08.946Z,2.80
2023-05-08T08:07:35.344Z,5.45
2023-05-08T08:10:05.617Z,3.88
2023-05-08T08:12:32.125Z,4.38
2023-05-08T08:14:58.284Z,2.88
2023-05-08T08:17:26.971Z,4.93
2023-05-08T08:19:54.862Z,4.70
2023-05-08T08:22:21.165Z,3.50
2023-05-08T08:24:47.253Z,3.80
2023-05-08T08:27:13.973Z,5.05
2023-05-08T08:29:40.306Z,2.78
2023-05-08T08:32:06.853Z,2.92
2023-05-08T08:34:33.813Z,4.22
2023-05-08T08:37:00.156Z,4.85
2023-05-08T08:39:26.450Z,8.23
2023-05-08T08:41:52.883Z,2.60
2023-05-08T08:44:19.018Z,2.47
2023-05-08T08:46:51.164Z,3.50
2023-05-08T08:49:23.922Z,3.55
2023-05-08T08:51:53.845Z,3.67
2023-05-08T08:54:22.761Z,5.25
2023-05-08T08:56:50.936Z,2.45
2023-05-08T08:59:18.036Z,3.72
2023-05-08T09:01:50.342Z,2.38
2023-05-08T09:04:17.435Z,4.68
2023-05-08T09:06:45.218Z,3.95
2023-05-08T09:09:12.757Z,3.08
2023-05-08T09:11:40.847Z,4.03
2023-05-08T09:14:07.780Z,4.65
2023-05-08T09:16:34.688Z,5.28
2023-05-08T09:19:02.900Z,2.22
2023-05-08T09:21:31.389Z,5.88
2023-05-08T09:24:02.718Z,4.28
2023-05-08T09:26:35.464Z,3.70
2023-05-08T09:29:12.358Z,5.65
2023-05-08T09:31:41.222Z,4.25
2023-05-08T09:34:08.549Z,3.45
2023-05-08T09:36:35.558Z,3.90
2023-05-08T09:39:02.700Z,4.68
2023-05-08T09:41:29.153Z,6.15
2023-05-08T09:44:03.787Z,3.97
2023-05-08T09:46:31.043Z,3.95
2023-05-08T09:48:58.580Z,5.55
2023-05-08T09:51:26.642Z,6.50
2023-05-08T09:53:55.505Z,3.47
2023-05-08T09:56:29.420Z,4.32
2023-05-08T09:58:55.649Z,3.78
2023-05-08T10:01:34.110Z,4.65
2023-05-08T10:04:01.029Z,5.50
2023-05-08T10:06:28.286Z,4.57
2023-05-08T10:09:14.335Z,3.38
2023-05-08T10:11:52.249Z,3.80
2023-05-08T10:14:19.531Z,4.30
2023-05-08T10:16:48.417Z,3.47
2023-05-08T10:19:16.894Z,4.20
2023-05-08T10:21:51.325Z,6.50
2023-05-08T10:24:27.150Z,3.78
2023-05-08T10:27:06.828Z,3.20
2023-05-08T10:29:45.714Z,8.43
2023-05-08T10:32:17.049Z,5.87
2023-05-08T10:34:44.741Z,3.93
2023-05-08T10:37:11.992Z,4.60
2023-05-08T10:39:39.552Z,8.73
2023-05-08T10:42:06.542Z,4.13
2023-05-08T10:44:32.970Z,4.47
2023-05-08T10:47:20.680Z,2.97
2023-05-08T10:50:13.175Z,5.20
2023-05-08T10:53:39.664Z,3.73
2023-05-08T10:56:05.929Z,5.10
2023-05-08T10:58:35.010Z,5.70
2023-05-08T11:01:06.725Z,4.27
2023-05-08T11:03:45.369Z,2.40
2023-05-08T11:06:12.363Z,4.07
2023-05-08T11:08:49.958Z,4.23
2023-05-08T11:11:23.954Z,2.97
2023-05-08T11:13:55.189Z,6.00
2023-05-08T11:17:02.437Z,6.13
2023-05-08T11:19:28.998Z,4.10
2023-05-08T11:22:13.655Z,4.10
2023-05-08T11:24:48.057Z,3.57
2023-05-08T11:27:15.419Z,6.33
2023-05-08T11:29:44.107Z,3.67
2023-05-08T11:32:10.618Z,6.03
2023-05-08T11:34:43.565Z,4.87
2023-05-08T11:37:11.829Z,5.53
2023-05-08T11:39:39.688Z,3.33
2023-05-08T11:42:24.167Z,4.17
2023-05-08T11:45:07.955Z,3.07
2023-05-08T11:47:40.846Z,3.40
2023-05-08T11:50:08.635Z,3.70
2023-05-08T11:52:36.700Z,5.50
2023-05-08T11:55:11.288Z,3.97
2023-05-08T11:57:38.150Z,4.37
2023-05-08T12:00:12.230Z,5.03
2023-05-08T12:02:40.511Z,3.80
2023-05-08T12:05:09.100Z,3.37
2023-05-08T12:07:45.800Z,2.90
2023-05-08T12:10:16.592Z,4.40
2023-05-08T12:12:44.222Z,4.40
2023-05-08T12:15:14.759Z,3.90
2023-05-08T12:17:42.054Z,3.83
2023-05-08T12:20:18.562Z,3.23
2023-05-08T12:22:52.362Z,9.50
2023-05-08T12:25:19.393Z,5.50
2023-05-08T12:27:45.831Z,4.13
2023-05-08T12:30:13.970Z,7.90
2023-05-08T12:32:41.971Z,4.93
2023-05-08T12:35:11.119Z,3.87
2023-05-08T12:37:37.714Z,4.20
2023-05-08T12:40:06.112Z,2.67
2023-05-08T12:42:47.581Z,3.40
2023-05-08T12:45:27.409Z,3.43
2023-05-08T12:48:01.716Z,3.97
2023-05-08T12:50:29.973Z,3.23
2023-05-08T12:53:02.897Z,7.20
2023-05-08T12:55:31.527Z,6.67
2023-05-08T12:58:05.959Z,5.23
2023-05-08T13:00:43.689Z,4.37
2023-05-08T13:03:12.570Z,3.77
2023-05-08T13:05:44.897Z,5.57
2023-05-08T13:08:11.818Z,6.07
2023-05-08T13:10:52.698Z,3.70
2023-05-08T13:13:20.791Z,3.87
2023-05-08T13:15:48.492Z,6.17
2023-05-08T13:18:15.845Z,2.40
2023-05-08T13:20:43.223Z,4.87
2023-05-08T13:23:12.956Z,5.80
2023-05-08T13:25:40.496Z,3.97
2023-05-08T13:28:08.620Z,6.23
2023-05-08T13:30:36.089Z,5.03
2023-05-08T13:33:03.910Z,2.97
2023-05-08T13:35:31.390Z,3.63
2023-05-08T13:37:58.563Z,13.70
2023-05-08T13:40:25.581Z,6.43
2023-05-08T13:42:52.606Z,4.83
2023-05-08T13:45:19.511Z,7.67
2023-05-08T13:47:47.681Z,7.17
2023-05-08T13:50:15.632Z,10.23
2023-05-08T13:52:42.533Z,3.77
2023-05-08T13:55:11.307Z,3.70
2023-05-08T13:57:38.313Z,3.57
2023-05-08T14:00:06.362Z,6.50
2023-05-08T14:02:36.748Z,4.43
2023-05-08T14:05:04.591Z,4.50
2023-05-08T14:07:30.814Z,5.80
2023-05-08T14:09:57.275Z,3.57
2023-05-08T14:12:23.388Z,3.73
2023-05-08T14:14:49.891Z,3.93
2023-05-08T14:17:16.043Z,3.77
2023-05-08T14:19:42.586Z,7.10
2023-05-08T14:22:08.768Z,3.77
2023-05-08T14:24:35.168Z,2.50
2023-05-08T14:27:04.964Z,3.97
2023-05-08T14:29:32.595Z,3.37
2023-05-08T14:31:58.848Z,7.50
2023-05-08T14:34:25.501Z,4.63
2023-05-08T14:36:51.697Z,4.10
2023-05-08T14:39:18.086Z,5.13
2023-05-08T14:41:54.920Z,6.57
2023-05-08T14:44:30.805Z,5.20
2023-05-08T14:46:57.094Z,4.57
2023-05-08T14:49:36.646Z,5.33
2023-05-08T14:52:05.294Z,5.43
2023-05-08T14:54:32.438Z,4.70
2023-05-08T14:56:58.892Z,3.20
2023-05-08T14:59:25.453Z,3.33
2023-05-08T15:01:51.769Z,5.17
2023-05-08T15:04:18.479Z,5.00
2023-05-08T15:06:45.034Z,4.93
2023-05-08T15:09:11.821Z,7.53
2023-05-08T15:11:38.265Z,9.17
2023-05-08T15:14:05.395Z,8.47
2023-05-08T15:16:31.715Z,4.90
2023-05-08T15:18:58.634Z,3.53
2023-05-08T15:21:26.140Z,14.30
2023-05-08T15:23:54.192Z,15.80
2023-05-08T15:26:21.547Z,6.07
2023-05-08T15:28:48.032Z,7.93
2023-05-08T15:31:14.635Z,5.60
2023-05-08T15:33:43.984Z,4.10
2023-05-08T15:36:13.448Z,5.47
2023-05-08T15:38:41.102Z,5.27
2023-05-08T15:41:09.284Z,4.83
2023-05-08T15:43:36.640Z,6.03
2023-05-08T15:46:02.808Z,15.33
2023-05-08T15:48:29.358Z,28.70
2023-05-08T15:50:55.566Z,13.47
2023-05-08T15:53:22.146Z,39.43
2023-05-08T15:55:48.442Z,8.23
2023-05-08T15:58:14.947Z,84.83
2023-05-08T16:00:45.342Z,38.23
2023-05-08T16:03:12.682Z,17.70
2023-05-08T16:05:39.032Z,47.07
2023-05-08T16:08:05.646Z,63.40
2023-05-08T16:10:31.810Z,33.80
2023-05-08T16:12:58.350Z,56.50
2023-05-08T16:15:24.715Z,41.00
2023-05-08T16:17:51.238Z,57.13
2023-05-08T16:20:17.347Z,49.57
2023-05-08T16:22:43.909Z,15.27
2023-05-08T16:25:10.734Z,18.10
2023-05-08T16:27:37.425Z,10.47
2023-05-08T16:30:04.115Z,62.33
2023-05-08T16:33:17.622Z,47.37
2023-05-08T16:35:43.825Z,37.10
2023-05-08T16:38:10.309Z,72.67
2023-05-08T16:40:36.844Z,63.97
2023-05-08T16:43:03.276Z,51.70
2023-05-08T16:45:29.495Z,41.73
2023-05-08T16:47:55.912Z,33.20
2023-05-08T16:50:22.113Z,44.97
2023-05-08T16:52:48.557Z,27.53
2023-05-08T16:55:15.287Z,39.57
2023-05-08T16:57:42.199Z,49.97
2023-05-08T17:00:08.792Z,38.47
2023-05-08T17:02:35.360Z,66.37
2023-05-08T17:05:02.088Z,25.10
2023-05-08T17:07:28.592Z,16.93
2023-05-08T17:09:55.724Z,19.10
2023-05-08T17:12:23.027Z,11.03
2023-05-08T17:14:49.312Z,32.97
2023-05-08T17:17:16.107Z,34.93
2023-05-08T17:19:43.142Z,43.27
2023-05-08T17:22:09.593Z,11.90
2023-05-08T17:24:37.253Z,25.00
2023-05-08T17:27:07.223Z,31.20
2023-05-08T17:29:34.042Z,36.07
2023-05-08T17:32:00.753Z,11.23
2023-05-08T17:34:27.026Z,24.73
2023-05-08T17:36:55.101Z,26.57
2023-05-08T17:39:21.628Z,20.60
2023-05-08T17:41:48.802Z,25.60
2023-05-08T17:44:16.342Z,13.97
2023-05-08T17:46:43.326Z,22.63
2023-05-08T17:49:09.663Z,8.40
2023-05-08T17:51:36.346Z,8.87
2023-05-08T17:54:02.617Z,14.50
2023-05-08T17:56:31.790Z,21.47
2023-05-08T17:58:58.268Z,24.40
2023-05-08T18:01:25.362Z,16.13
2023-05-08T18:03:54.903Z,10.23
2023-05-08T18:06:21.859Z,16.50
2023-05-08T18:08:48.155Z,21.47
2023-05-08T18:11:20.062Z,11.80
2023-05-08T18:13:47.324Z,18.97
2023-05-08T18:16:15.285Z,24.27
2023-05-08T18:18:41.846Z,32.50
2023-05-08T18:21:08.468Z,25.77
2023-05-08T18:23:34.930Z,17.67
2023-05-08T18:26:01.430Z,13.03
2023-05-08T18:28:27.702Z,9.07
2023-05-08T18:30:54.610Z,8.13
2023-05-08T18:33:21.708Z,10.97
2023-05-08T18:35:49.831Z,9.77
2023-05-08T18:38:17.015Z,6.93
2023-05-08T18:40:44.808Z,6.57
2023-05-08T18:43:11.372Z,8.50
2023-05-08T18:45:41.471Z,9.77
2023-05-08T18:48:09.005Z,6.40
2023-05-08T18:50:35.671Z,7.60
2023-05-08T18:53:03.113Z,14.20
2023-05-08T18:55:31.053Z,7.07
2023-05-08T18:57:58.373Z,5.83
2023-05-08T19:00:26.999Z,4.17
2023-05-08T19:02:54.924Z,8.90
2023-05-08T19:05:22.829Z,5.60
2023-05-08T19:07:49.672Z,6.73
2023-05-08T19:10:17.446Z,8.60
2023-05-08T19:12:43.870Z,9.13
2023-05-08T19:15:13.558Z,6.90
2023-05-08T19:17:41.416Z,8.50
2023-05-08T19:20:08.556Z,7.17
2023-05-08T19:22:36.007Z,4.90
2023-05-08T19:25:03.566Z,5.40
2023-05-08T19:27:31.289Z,4.67
2023-05-08T19:29:58.723Z,10.90
2023-05-08T19:32:26.119Z,4.60
2023-05-08T19:34:56.758Z,4.33
2023-05-08T19:37:24.950Z,4.87
2023-05-08T19:39:52.898Z,11.33
2023-05-08T19:42:20.980Z,5.03
2023-05-08T19:44:49.850Z,8.37
2023-05-08T19:47:17.940Z,4.17
2023-05-08T19:49:45.574Z,8.27
2023-05-08T19:52:12.637Z,6.17
2023-05-08T19:54:42.628Z,5.77
2023-05-08T19:57:09.351Z,10.30
2023-05-08T19:59:36.068Z,5.73
2023-05-08T20:02:02.486Z,10.07
2023-05-08T20:04:29.141Z,4.67
2023-05-08T20:06:55.867Z,11.60
2023-05-08T20:09:22.581Z,7.10
2023-05-08T20:11:49.163Z,5.73
2023-05-08T20:14:16.057Z,5.83
2023-05-08T20:16:42.616Z,6.63
2023-05-08T20:19:09.099Z,5.63
2023-05-08T20:21:36.085Z,10.10
2023-05-08T20:24:04.002Z,5.47
2023-05-08T20:26:32.006Z,7.60
2023-05-08T20:28:59.182Z,6.90
2023-05-08T20:31:27.015Z,6.57
2023-05-08T20:33:53.723Z,4.27
2023-05-08T20:36:19.967Z,4.73
2023-05-08T20:38:46.792Z,5.83
2023-05-08T20:41:13.206Z,7.87
2023-05-08T20:43:40.479Z,4.43
2023-05-08T20:46:07.112Z,7.13
2023-05-08T20:48:33.817Z,6.67
2023-05-08T20:51:00.986Z,4.70
2023-05-08T20:53:27.803Z,6.13
2023-05-08T20:56:01.611Z,10.00
2023-05-08T20:58:28.288Z,6.60
2023-05-08T21:00:54.570Z,8.00
2023-05-08T21:03:21.127Z,5.67
2023-05-08T21:05:47.305Z,4.30
2023-05-08T21:08:14.153Z,7.57
2023-05-08T21:10:41.321Z,6.63
2023-05-08T21:13:07.896Z,6.10
2023-05-08T21:15:34.320Z,6.40
2023-05-08T21:18:00.878Z,7.33
2023-05-08T21:20:27.111Z,6.63
2023-05-08T21:22:53.645Z,7.83
2023-05-08T21:25:21.026Z,5.90
2023-05-08T21:27:47.504Z,10.63
2023-05-08T21:30:15.682Z,7.17
2023-05-08T21:32:44.007Z,7.47
2023-05-08T21:35:11.573Z,7.83
2023-05-08T21:37:38.916Z,7.47
2023-05-08T21:40:05.686Z,8.07
2023-05-08T21:42:32.171Z,9.43
2023-05-08T21:44:58.719Z,6.00
2023-05-08T21:47:27.280Z,9.43
2023-05-08T21:49:54.128Z,6.13
2023-05-08T21:52:21.758Z,9.50
2023-05-08T21:54:48.992Z,6.80
2023-05-08T21:57:15.476Z,8.43
2023-05-08T21:59:41.646Z,7.07
2023-05-08T22:02:07.790Z,9.17
2023-05-08T22:04:34.268Z,10.23
2023-05-08T22:07:00.591Z,10.50
2023-05-08T22:09:27.076Z,9.37
2023-05-08T22:11:53.133Z,10.43
2023-05-08T22:14:19.576Z,10.37
2023-05-08T22:16:46.292Z,8.77
2023-05-08T22:19:12.854Z,7.97
2023-05-08T22:21:39.420Z,8.07
2023-05-08T22:24:06.258Z,12.17
2023-05-08T22:26:32.321Z,10.00
2023-05-08T22:28:59.042Z,8.70
2023-05-08T22:31:25.263Z,10.63
2023-05-08T22:33:51.622Z,9.10
2023-05-08T22:36:18.099Z,8.70
2023-05-08T22:38:44.530Z,10.63
2023-05-08T22:41:10.684Z,9.80
2023-05-08T22:43:37.315Z,6.93
2023-05-08T22:46:04.608Z,8.67
2023-05-08T22:48:31.105Z,10.23
2023-05-08T22:50:57.227Z,11.23
2023-05-08T22:53:23.573Z,12.40
2023-05-08T22:55:49.909Z,10.80
2023-05-08T22:58:16.366Z,9.93
2023-05-08T23:00:42.454Z,9.90
2023-05-08T23:03:08.780Z,10.03
2023-05-08T23:05:34.939Z,10.10
2023-05-08T23:08:01.323Z,8.77
2023-05-08T23:10:27.425Z,10.97
2023-05-08T23:12:53.853Z,9.40
2023-05-08T23:15:20.467Z,8.87
2023-05-08T23:17:46.860Z,9.83
2023-05-08T23:20:14.026Z,9.47
2023-05-08T23:22:40.463Z,10.77
2023-05-08T23:25:10.832Z,10.03
2023-05-08T23:27:37.501Z,11.17
2023-05-08T23:30:03.957Z,8.13
2023-05-08T23:32:30.340Z,11.27
2023-05-08T23:34:56.474Z,10.40
2023-05-08T23:37:22.897Z,10.80
2023-05-08T23:39:48.962Z,11.27
2023-05-08T23:42:15.359Z,9.50
2023-05-08T23:44:41.564Z,9.23
2023-05-08T23:47:08.025Z,11.87
2023-05-08T23:49:34.198Z,11.30
2023-05-08T23:52:00.520Z,10.87
2023-05-08T23:54:26.787Z,9.87
2023-05-08T23:56:53.293Z,8.63
2023-05-08T23:59:19.385Z,9.37
